sensor_id;sensor_type;location;lat;lon;timestamp;P1;durP1;ratioP1;P2;durP2;ratioP2
56122;SDS011;42426;46.104;19.656;2023-03-07T00:01:36;27.67;;;15.80;;
56122;SDS011;42426;46.104;19.656;2023-03-07T00:04:02;32.50;;;19.40;;
56122;SDS011;42426;46.104;19.656;2023-03-07T00:06:29;23.98;;;14.48;;
56122;SDS011;42426;46.104;19.656;2023-03-07T00:08:57;21.58;;;14.30;;
56122;SDS011;42426;46.104;19.656;2023-03-07T00:11:25;22.98;;;16.08;;
56122;SDS011;42426;46.104;19.656;2023-03-07T00:13:51;26.98;;;15.35;;
56122;SDS011;42426;46.104;19.656;2023-03-07T00:16:18;22.58;;;15.45;;
56122;SDS011;42426;46.104;19.656;2023-03-07T00:18:46;23.58;;;14.85;;
56122;SDS011;42426;46.104;19.656;2023-03-07T00:21:14;30.30;;;16.27;;
56122;SDS011;42426;46.104;19.656;2023-03-07T00:23:42;21.73;;;15.02;;
56122;SDS011;42426;46.104;19.656;2023-03-07T00:26:12;22.23;;;14.40;;
56122;SDS011;42426;46.104;19.656;2023-03-07T00:28:39;22.67;;;14.73;;
56122;SDS011;42426;46.104;19.656;2023-03-07T00:31:05;25.58;;;14.40;;
56122;SDS011;42426;46.104;19.656;2023-03-07T00:33:33;24.88;;;15.10;;
56122;SDS011;42426;46.104;19.656;2023-03-07T00:36:04;33.85;;;16.13;;
56122;SDS011;42426;46.104;19.656;2023-03-07T00:38:40;27.35;;;16.23;;
56122;SDS011;42426;46.104;19.656;2023-03-07T00:41:07;24.77;;;16.50;;
56122;SDS011;42426;46.104;19.656;2023-03-07T00:43:35;28.80;;;16.83;;
56122;SDS011;42426;46.104;19.656;2023-03-07T00:46:02;24.63;;;15.18;;
56122;SDS011;42426;46.104;19.656;2023-03-07T00:48:28;26.95;;;17.35;;
56122;SDS011;42426;46.104;19.656;2023-03-07T00:50:54;25.25;;;16.00;;
56122;SDS011;42426;46.104;19.656;2023-03-07T00:53:20;28.80;;;16.15;;
56122;SDS011;42426;46.104;19.656;2023-03-07T00:55:57;27.35;;;15.30;;
56122;SDS011;42426;46.104;19.656;2023-03-07T00:58:28;24.67;;;14.40;;
56122;SDS011;42426;46.104;19.656;2023-03-07T01:00:55;26.20;;;15.30;;
56122;SDS011;42426;46.104;19.656;2023-03-07T01:03:21;25.67;;;15.00;;
56122;SDS011;42426;46.104;19.656;2023-03-07T01:05:48;24.23;;;14.18;;
56122;SDS011;42426;46.104;19.656;2023-03-07T01:08:15;21.63;;;13.63;;
56122;SDS011;42426;46.104;19.656;2023-03-07T01:10:41;23.65;;;13.35;;
56122;SDS011;42426;46.104;19.656;2023-03-07T01:13:08;21.55;;;12.93;;
56122;SDS011;42426;46.104;19.656;2023-03-07T01:15:35;23.92;;;13.65;;
56122;SDS011;42426;46.104;19.656;2023-03-07T01:18:06;26.58;;;15.30;;
56122;SDS011;42426;46.104;19.656;2023-03-07T01:20:33;21.67;;;13.20;;
56122;SDS011;42426;46.104;19.656;2023-03-07T01:23:00;25.85;;;13.57;;
56122;SDS011;42426;46.104;19.656;2023-03-07T01:25:26;21.42;;;13.18;;
56122;SDS011;42426;46.104;19.656;2023-03-07T01:27:52;23.23;;;14.18;;
56122;SDS011;42426;46.104;19.656;2023-03-07T01:30:22;23.98;;;15.43;;
56122;SDS011;42426;46.104;19.656;2023-03-07T01:32:55;24.83;;;14.05;;
56122;SDS011;42426;46.104;19.656;2023-03-07T01:35:22;23.52;;;14.75;;
56122;SDS011;42426;46.104;19.656;2023-03-07T01:37:51;22.50;;;13.20;;
56122;SDS011;42426;46.104;19.656;2023-03-07T01:40:18;21.30;;;12.43;;
56122;SDS011;42426;46.104;19.656;2023-03-07T01:42:45;20.63;;;11.70;;
56122;SDS011;42426;46.104;19.656;2023-03-07T01:47:36;18.05;;;11.25;;
56122;SDS011;42426;46.104;19.656;2023-03-07T01:50:03;20.83;;;11.52;;
56122;SDS011;42426;46.104;19.656;2023-03-07T01:52:37;21.90;;;12.20;;
56122;SDS011;42426;46.104;19.656;2023-03-07T01:55:17;18.97;;;11.27;;
56122;SDS011;42426;46.104;19.656;2023-03-07T01:57:46;21.13;;;12.75;;
56122;SDS011;42426;46.104;19.656;2023-03-07T02:00:15;20.02;;;11.93;;
56122;SDS011;42426;46.104;19.656;2023-03-07T02:02:56;20.83;;;11.63;;
56122;SDS011;42426;46.104;19.656;2023-03-07T02:05:33;18.92;;;12.05;;
56122;SDS011;42426;46.104;19.656;2023-03-07T02:08:03;20.65;;;11.60;;
56122;SDS011;42426;46.104;19.656;2023-03-07T02:10:35;22.50;;;11.70;;
56122;SDS011;42426;46.104;19.656;2023-03-07T02:13:02;20.45;;;11.27;;
56122;SDS011;42426;46.104;19.656;2023-03-07T02:15:28;20.92;;;11.88;;
56122;SDS011;42426;46.104;19.656;2023-03-07T02:17:54;19.33;;;12.10;;
56122;SDS011;42426;46.104;19.656;2023-03-07T02:23:15;20.42;;;11.40;;
56122;SDS011;42426;46.104;19.656;2023-03-07T02:28:40;22.90;;;12.57;;
56122;SDS011;42426;46.104;19.656;2023-03-07T02:31:07;25.30;;;12.73;;
56122;SDS011;42426;46.104;19.656;2023-03-07T02:33:34;21.73;;;12.68;;
56122;SDS011;42426;46.104;19.656;2023-03-07T02:36:19;17.90;;;11.43;;
56122;SDS011;42426;46.104;19.656;2023-03-07T02:38:48;23.63;;;12.73;;
56122;SDS011;42426;46.104;19.656;2023-03-07T02:41:18;21.08;;;11.10;;
56122;SDS011;42426;46.104;19.656;2023-03-07T02:43:48;22.30;;;12.35;;
56122;SDS011;42426;46.104;19.656;2023-03-07T02:46:13;23.35;;;12.50;;
56122;SDS011;42426;46.104;19.656;2023-03-07T02:48:39;24.70;;;13.27;;
56122;SDS011;42426;46.104;19.656;2023-03-07T02:51:05;23.13;;;12.50;;
56122;SDS011;42426;46.104;19.656;2023-03-07T02:53:30;21.67;;;12.82;;
56122;SDS011;42426;46.104;19.656;2023-03-07T02:55:56;23.25;;;13.35;;
56122;SDS011;42426;46.104;19.656;2023-03-07T02:58:22;23.20;;;12.10;;
56122;SDS011;42426;46.104;19.656;2023-03-07T03:00:47;24.48;;;12.63;;
56122;SDS011;42426;46.104;19.656;2023-03-07T03:03:13;19.63;;;12.43;;
56122;SDS011;42426;46.104;19.656;2023-03-07T03:05:39;23.35;;;12.45;;
56122;SDS011;42426;46.104;19.656;2023-03-07T03:08:05;24.33;;;13.25;;
56122;SDS011;42426;46.104;19.656;2023-03-07T03:10:30;22.65;;;13.48;;
56122;SDS011;42426;46.104;19.656;2023-03-07T03:12:56;23.15;;;11.98;;
56122;SDS011;42426;46.104;19.656;2023-03-07T03:15:22;25.27;;;12.50;;
56122;SDS011;42426;46.104;19.656;2023-03-07T03:17:47;21.83;;;13.30;;
56122;SDS011;42426;46.104;19.656;2023-03-07T03:20:14;23.80;;;14.18;;
56122;SDS011;42426;46.104;19.656;2023-03-07T03:22:41;23.08;;;13.23;;
56122;SDS011;42426;46.104;19.656;2023-03-07T03:25:08;23.70;;;13.00;;
56122;SDS011;42426;46.104;19.656;2023-03-07T03:27:36;25.80;;;13.27;;
56122;SDS011;42426;46.104;19.656;2023-03-07T03:30:03;23.85;;;13.60;;
56122;SDS011;42426;46.104;19.656;2023-03-07T03:32:35;25.92;;;13.93;;
56122;SDS011;42426;46.104;19.656;2023-03-07T03:35:01;23.60;;;13.43;;
56122;SDS011;42426;46.104;19.656;2023-03-07T03:37:29;25.02;;;13.20;;
56122;SDS011;42426;46.104;19.656;2023-03-07T03:39:56;25.95;;;12.65;;
56122;SDS011;42426;46.104;19.656;2023-03-07T03:42:21;23.45;;;12.65;;
56122;SDS011;42426;46.104;19.656;2023-03-07T03:44:47;21.35;;;12.25;;
56122;SDS011;42426;46.104;19.656;2023-03-07T03:47:13;20.95;;;12.75;;
56122;SDS011;42426;46.104;19.656;2023-03-07T03:49:39;22.73;;;12.98;;
56122;SDS011;42426;46.104;19.656;2023-03-07T03:52:05;21.42;;;12.15;;
56122;SDS011;42426;46.104;19.656;2023-03-07T03:54:31;23.65;;;14.25;;
56122;SDS011;42426;46.104;19.656;2023-03-07T03:56:57;20.25;;;11.85;;
56122;SDS011;42426;46.104;19.656;2023-03-07T03:59:22;20.95;;;12.90;;
56122;SDS011;42426;46.104;19.656;2023-03-07T04:01:48;23.88;;;13.00;;
56122;SDS011;42426;46.104;19.656;2023-03-07T04:04:14;22.15;;;12.57;;
56122;SDS011;42426;46.104;19.656;2023-03-07T04:06:40;24.42;;;13.82;;
56122;SDS011;42426;46.104;19.656;2023-03-07T04:09:06;24.92;;;12.30;;
56122;SDS011;42426;46.104;19.656;2023-03-07T04:11:33;23.98;;;12.98;;
56122;SDS011;42426;46.104;19.656;2023-03-07T04:13:59;26.58;;;15.18;;
56122;SDS011;42426;46.104;19.656;2023-03-07T04:16:26;22.65;;;12.80;;
56122;SDS011;42426;46.104;19.656;2023-03-07T04:18:51;21.55;;;12.82;;
56122;SDS011;42426;46.104;19.656;2023-03-07T04:21:17;22.73;;;12.80;;
56122;SDS011;42426;46.104;19.656;2023-03-07T04:23:44;21.90;;;12.68;;
56122;SDS011;42426;46.104;19.656;2023-03-07T04:26:10;23.73;;;13.32;;
56122;SDS011;42426;46.104;19.656;2023-03-07T04:28:38;20.90;;;12.40;;
56122;SDS011;42426;46.104;19.656;2023-03-07T04:31:14;29.80;;;15.93;;
56122;SDS011;42426;46.104;19.656;2023-03-07T04:33:44;26.67;;;15.00;;
56122;SDS011;42426;46.104;19.656;2023-03-07T04:36:11;26.70;;;14.30;;
56122;SDS011;42426;46.104;19.656;2023-03-07T04:38:37;25.48;;;14.98;;
56122;SDS011;42426;46.104;19.656;2023-03-07T04:41:05;27.35;;;15.82;;
56122;SDS011;42426;46.104;19.656;2023-03-07T04:43:31;26.48;;;14.82;;
56122;SDS011;42426;46.104;19.656;2023-03-07T04:45:56;28.88;;;14.98;;
56122;SDS011;42426;46.104;19.656;2023-03-07T04:48:22;25.75;;;14.30;;
56122;SDS011;42426;46.104;19.656;2023-03-07T04:50:49;22.02;;;13.13;;
56122;SDS011;42426;46.104;19.656;2023-03-07T04:53:15;24.63;;;15.07;;
56122;SDS011;42426;46.104;19.656;2023-03-07T04:55:42;26.48;;;14.63;;
56122;SDS011;42426;46.104;19.656;2023-03-07T04:58:08;21.90;;;13.75;;
56122;SDS011;42426;46.104;19.656;2023-03-07T05:00:37;24.60;;;13.48;;
56122;SDS011;42426;46.104;19.656;2023-03-07T05:03:07;21.90;;;13.27;;
56122;SDS011;42426;46.104;19.656;2023-03-07T05:05:34;21.48;;;13.77;;
56122;SDS011;42426;46.104;19.656;2023-03-07T05:07:59;22.27;;;13.07;;
56122;SDS011;42426;46.104;19.656;2023-03-07T05:10:25;26.17;;;15.52;;
56122;SDS011;42426;46.104;19.656;2023-03-07T05:12:51;24.10;;;13.73;;
56122;SDS011;42426;46.104;19.656;2023-03-07T05:15:17;22.08;;;13.55;;
56122;SDS011;42426;46.104;19.656;2023-03-07T05:17:43;29.00;;;14.82;;
56122;SDS011;42426;46.104;19.656;2023-03-07T05:20:08;25.15;;;13.50;;
56122;SDS011;42426;46.104;19.656;2023-03-07T05:22:35;26.35;;;14.70;;
56122;SDS011;42426;46.104;19.656;2023-03-07T05:25:01;24.60;;;14.73;;
56122;SDS011;42426;46.104;19.656;2023-03-07T05:27:27;25.40;;;13.20;;
56122;SDS011;42426;46.104;19.656;2023-03-07T05:29:52;25.40;;;14.05;;
56122;SDS011;42426;46.104;19.656;2023-03-07T05:32:18;23.10;;;14.27;;
56122;SDS011;42426;46.104;19.656;2023-03-07T05:34:44;33.97;;;17.80;;
56122;SDS011;42426;46.104;19.656;2023-03-07T05:37:11;29.20;;;17.20;;
56122;SDS011;42426;46.104;19.656;2023-03-07T05:39:37;32.30;;;18.63;;
56122;SDS011;42426;46.104;19.656;2023-03-07T05:42:02;35.97;;;21.83;;
56122;SDS011;42426;46.104;19.656;2023-03-07T05:44:28;42.67;;;21.50;;
56122;SDS011;42426;46.104;19.656;2023-03-07T05:46:54;40.65;;;21.70;;
56122;SDS011;42426;46.104;19.656;2023-03-07T05:49:20;38.60;;;21.13;;
56122;SDS011;42426;46.104;19.656;2023-03-07T05:51:45;42.40;;;22.48;;
56122;SDS011;42426;46.104;19.656;2023-03-07T05:54:11;39.78;;;23.67;;
56122;SDS011;42426;46.104;19.656;2023-03-07T05:56:37;41.25;;;22.95;;
56122;SDS011;42426;46.104;19.656;2023-03-07T05:59:02;37.60;;;21.17;;
56122;SDS011;42426;46.104;19.656;2023-03-07T06:01:31;37.75;;;21.23;;
56122;SDS011;42426;46.104;19.656;2023-03-07T06:03:58;39.72;;;23.60;;
56122;SDS011;42426;46.104;19.656;2023-03-07T06:06:23;49.22;;;27.42;;
56122;SDS011;42426;46.104;19.656;2023-03-07T06:08:49;46.40;;;27.08;;
56122;SDS011;42426;46.104;19.656;2023-03-07T06:11:15;49.33;;;26.70;;
56122;SDS011;42426;46.104;19.656;2023-03-07T06:13:41;43.97;;;23.77;;
56122;SDS011;42426;46.104;19.656;2023-03-07T06:16:06;40.92;;;23.77;;
56122;SDS011;42426;46.104;19.656;2023-03-07T06:18:32;44.88;;;23.08;;
56122;SDS011;42426;46.104;19.656;2023-03-07T06:20:59;39.30;;;22.60;;
56122;SDS011;42426;46.104;19.656;2023-03-07T06:23:26;42.13;;;23.48;;
56122;SDS011;42426;46.104;19.656;2023-03-07T06:25:54;37.92;;;21.33;;
56122;SDS011;42426;46.104;19.656;2023-03-07T06:28:20;35.22;;;20.60;;
56122;SDS011;42426;46.104;19.656;2023-03-07T06:30:46;33.92;;;19.48;;
56122;SDS011;42426;46.104;19.656;2023-03-07T06:33:12;26.35;;;17.88;;
56122;SDS011;42426;46.104;19.656;2023-03-07T06:35:38;28.45;;;17.80;;
56122;SDS011;42426;46.104;19.656;2023-03-07T06:38:05;31.55;;;17.27;;
56122;SDS011;42426;46.104;19.656;2023-03-07T06:40:31;35.28;;;18.67;;
56122;SDS011;42426;46.104;19.656;2023-03-07T06:42:57;29.48;;;17.13;;
56122;SDS011;42426;46.104;19.656;2023-03-07T06:45:24;37.70;;;18.48;;
56122;SDS011;42426;46.104;19.656;2023-03-07T06:47:49;32.88;;;19.17;;
56122;SDS011;42426;46.104;19.656;2023-03-07T06:50:15;31.15;;;17.33;;
56122;SDS011;42426;46.104;19.656;2023-03-07T06:52:41;29.45;;;16.92;;
56122;SDS011;42426;46.104;19.656;2023-03-07T06:55:07;67.88;;;50.63;;
56122;SDS011;42426;46.104;19.656;2023-03-07T06:57:35;38.28;;;25.63;;
56122;SDS011;42426;46.104;19.656;2023-03-07T07:00:01;34.05;;;23.17;;
56122;SDS011;42426;46.104;19.656;2023-03-07T07:02:29;31.85;;;21.60;;
56122;SDS011;42426;46.104;19.656;2023-03-07T07:04:55;31.52;;;19.08;;
56122;SDS011;42426;46.104;19.656;2023-03-07T07:07:23;32.65;;;19.08;;
56122;SDS011;42426;46.104;19.656;2023-03-07T07:09:49;30.48;;;18.55;;
56122;SDS011;42426;46.104;19.656;2023-03-07T07:12:15;28.10;;;18.27;;
56122;SDS011;42426;46.104;19.656;2023-03-07T07:14:42;32.28;;;19.55;;
56122;SDS011;42426;46.104;19.656;2023-03-07T07:17:08;28.90;;;15.40;;
56122;SDS011;42426;46.104;19.656;2023-03-07T07:19:35;43.70;;;26.05;;
56122;SDS011;42426;46.104;19.656;2023-03-07T07:22:01;43.28;;;23.38;;
56122;SDS011;42426;46.104;19.656;2023-03-07T07:24:26;54.03;;;32.28;;
56122;SDS011;42426;46.104;19.656;2023-03-07T07:26:53;44.88;;;27.13;;
56122;SDS011;42426;46.104;19.656;2023-03-07T07:29:20;43.30;;;24.08;;
56122;SDS011;42426;46.104;19.656;2023-03-07T07:31:46;39.38;;;20.83;;
56122;SDS011;42426;46.104;19.656;2023-03-07T07:34:11;46.20;;;23.05;;
56122;SDS011;42426;46.104;19.656;2023-03-07T07:36:37;41.83;;;21.55;;
56122;SDS011;42426;46.104;19.656;2023-03-07T07:39:03;35.22;;;20.25;;
56122;SDS011;42426;46.104;19.656;2023-03-07T07:41:30;37.15;;;20.35;;
56122;SDS011;42426;46.104;19.656;2023-03-07T07:43:57;37.10;;;19.02;;
56122;SDS011;42426;46.104;19.656;2023-03-07T07:46:22;29.88;;;16.13;;
56122;SDS011;42426;46.104;19.656;2023-03-07T07:48:48;24.00;;;15.80;;
56122;SDS011;42426;46.104;19.656;2023-03-07T07:51:14;28.48;;;15.95;;
56122;SDS011;42426;46.104;19.656;2023-03-07T07:53:40;22.05;;;14.15;;
56122;SDS011;42426;46.104;19.656;2023-03-07T07:56:05;25.90;;;15.60;;
56122;SDS011;42426;46.104;19.656;2023-03-07T07:58:31;26.30;;;15.15;;
56122;SDS011;42426;46.104;19.656;2023-03-07T08:00:57;25.38;;;15.55;;
56122;SDS011;42426;46.104;19.656;2023-03-07T08:06:21;28.30;;;16.23;;
56122;SDS011;42426;46.104;19.656;2023-03-07T08:08:49;26.13;;;14.60;;
56122;SDS011;42426;46.104;19.656;2023-03-07T08:11:15;22.92;;;14.90;;
56122;SDS011;42426;46.104;19.656;2023-03-07T08:13:41;29.88;;;15.23;;
56122;SDS011;42426;46.104;19.656;2023-03-07T08:16:14;24.73;;;16.20;;
56122;SDS011;42426;46.104;19.656;2023-03-07T08:18:42;35.22;;;17.38;;
56122;SDS011;42426;46.104;19.656;2023-03-07T08:21:16;29.77;;;17.27;;
56122;SDS011;42426;46.104;19.656;2023-03-07T08:23:42;26.70;;;15.63;;
56122;SDS011;42426;46.104;19.656;2023-03-07T08:26:08;32.38;;;19.50;;
56122;SDS011;42426;46.104;19.656;2023-03-07T08:28:35;32.95;;;17.58;;
56122;SDS011;42426;46.104;19.656;2023-03-07T08:31:05;32.90;;;18.30;;
56122;SDS011;42426;46.104;19.656;2023-03-07T08:33:33;28.60;;;17.17;;
56122;SDS011;42426;46.104;19.656;2023-03-07T08:35:59;30.73;;;16.95;;
56122;SDS011;42426;46.104;19.656;2023-03-07T08:38:24;25.23;;;16.00;;
56122;SDS011;42426;46.104;19.656;2023-03-07T08:40:50;32.47;;;17.27;;
56122;SDS011;42426;46.104;19.656;2023-03-07T08:43:16;28.73;;;16.50;;
56122;SDS011;42426;46.104;19.656;2023-03-07T08:45:42;27.05;;;16.35;;
56122;SDS011;42426;46.104;19.656;2023-03-07T08:48:08;27.88;;;18.00;;
56122;SDS011;42426;46.104;19.656;2023-03-07T08:53:56;29.42;;;16.25;;
56122;SDS011;42426;46.104;19.656;2023-03-07T08:59:45;24.42;;;15.50;;
56122;SDS011;42426;46.104;19.656;2023-03-07T09:05:35;28.15;;;16.88;;
56122;SDS011;42426;46.104;19.656;2023-03-07T09:11:24;38.03;;;22.70;;
56122;SDS011;42426;46.104;19.656;2023-03-07T09:17:12;44.10;;;25.08;;
56122;SDS011;42426;46.104;19.656;2023-03-07T09:19:39;133.35;;;72.68;;
56122;SDS011;42426;46.104;19.656;2023-03-07T09:22:06;80.32;;;41.67;;
56122;SDS011;42426;46.104;19.656;2023-03-07T09:24:32;71.28;;;43.08;;
56122;SDS011;42426;46.104;19.656;2023-03-07T09:26:57;72.53;;;43.75;;
56122;SDS011;42426;46.104;19.656;2023-03-07T09:29:23;77.57;;;44.35;;
56122;SDS011;42426;46.104;19.656;2023-03-07T09:31:49;70.65;;;42.17;;
56122;SDS011;42426;46.104;19.656;2023-03-07T09:34:16;52.53;;;31.00;;
56122;SDS011;42426;46.104;19.656;2023-03-07T09:36:41;56.10;;;34.38;;
56122;SDS011;42426;46.104;19.656;2023-03-07T09:39:07;51.88;;;31.38;;
56122;SDS011;42426;46.104;19.656;2023-03-07T09:49:47;28.77;;;17.63;;
56122;SDS011;42426;46.104;19.656;2023-03-07T09:52:18;29.77;;;18.00;;
56122;SDS011;42426;46.104;19.656;2023-03-07T09:57:26;27.42;;;16.13;;
56122;SDS011;42426;46.104;19.656;2023-03-07T09:59:57;27.05;;;15.27;;
56122;SDS011;42426;46.104;19.656;2023-03-07T10:02:28;23.48;;;14.20;;
56122;SDS011;42426;46.104;19.656;2023-03-07T10:07:46;20.58;;;12.48;;
56122;SDS011;42426;46.104;19.656;2023-03-07T10:26:33;18.48;;;12.18;;
56122;SDS011;42426;46.104;19.656;2023-03-07T10:29:21;21.13;;;11.23;;
56122;SDS011;42426;46.104;19.656;2023-03-07T10:31:53;19.80;;;11.35;;
56122;SDS011;42426;46.104;19.656;2023-03-07T10:34:28;15.35;;;10.10;;
56122;SDS011;42426;46.104;19.656;2023-03-07T10:36:55;19.02;;;10.32;;
56122;SDS011;42426;46.104;19.656;2023-03-07T10:39:32;19.52;;;11.18;;
56122;SDS011;42426;46.104;19.656;2023-03-07T10:42:03;18.60;;;11.23;;
56122;SDS011;42426;46.104;19.656;2023-03-07T10:44:31;17.50;;;11.00;;
56122;SDS011;42426;46.104;19.656;2023-03-07T10:46:58;20.45;;;11.65;;
56122;SDS011;42426;46.104;19.656;2023-03-07T10:49:28;17.30;;;10.95;;
56122;SDS011;42426;46.104;19.656;2023-03-07T10:52:11;20.85;;;11.20;;
56122;SDS011;42426;46.104;19.656;2023-03-07T10:54:47;17.92;;;11.32;;
56122;SDS011;42426;46.104;19.656;2023-03-07T10:57:15;30.02;;;17.77;;
56122;SDS011;42426;46.104;19.656;2023-03-07T10:59:43;26.35;;;15.30;;
56122;SDS011;42426;46.104;19.656;2023-03-07T11:05:18;21.42;;;12.52;;
56122;SDS011;42426;46.104;19.656;2023-03-07T11:07:45;18.13;;;11.88;;
56122;SDS011;42426;46.104;19.656;2023-03-07T11:10:31;19.98;;;10.95;;
56122;SDS011;42426;46.104;19.656;2023-03-07T11:13:21;26.02;;;14.45;;
56122;SDS011;42426;46.104;19.656;2023-03-07T11:15:48;27.55;;;15.63;;
56122;SDS011;42426;46.104;19.656;2023-03-07T11:18:28;26.95;;;15.38;;
56122;SDS011;42426;46.104;19.656;2023-03-07T11:21:00;21.30;;;12.82;;
56122;SDS011;42426;46.104;19.656;2023-03-07T11:23:27;22.02;;;13.32;;
56122;SDS011;42426;46.104;19.656;2023-03-07T11:25:56;25.02;;;13.85;;
56122;SDS011;42426;46.104;19.656;2023-03-07T11:28:38;23.00;;;13.52;;
56122;SDS011;42426;46.104;19.656;2023-03-07T11:31:38;16.02;;;10.30;;
56122;SDS011;42426;46.104;19.656;2023-03-07T11:36:38;21.67;;;11.00;;
56122;SDS011;42426;46.104;19.656;2023-03-07T11:41:55;22.73;;;11.13;;
56122;SDS011;42426;46.104;19.656;2023-03-07T11:56:59;18.98;;;11.25;;
56122;SDS011;42426;46.104;19.656;2023-03-07T12:10:03;20.02;;;11.75;;
56122;SDS011;42426;46.104;19.656;2023-03-07T12:24:02;22.00;;;13.25;;
56122;SDS011;42426;46.104;19.656;2023-03-07T12:26:27;17.48;;;11.18;;
56122;SDS011;42426;46.104;19.656;2023-03-07T12:29:15;16.25;;;9.95;;
56122;SDS011;42426;46.104;19.656;2023-03-07T12:31:55;20.35;;;12.27;;
56122;SDS011;42426;46.104;19.656;2023-03-07T12:34:33;18.60;;;12.27;;
56122;SDS011;42426;46.104;19.656;2023-03-07T12:39:52;17.65;;;12.05;;
56122;SDS011;42426;46.104;19.656;2023-03-07T12:51:06;32.97;;;19.55;;
56122;SDS011;42426;46.104;19.656;2023-03-07T12:53:55;23.08;;;12.65;;
56122;SDS011;42426;46.104;19.656;2023-03-07T12:59:12;18.67;;;11.32;;
56122;SDS011;42426;46.104;19.656;2023-03-07T13:01:42;16.77;;;10.98;;
56122;SDS011;42426;46.104;19.656;2023-03-07T13:06:43;15.55;;;9.77;;
56122;SDS011;42426;46.104;19.656;2023-03-07T13:09:15;17.08;;;10.32;;
56122;SDS011;42426;46.104;19.656;2023-03-07T13:14:48;16.52;;;10.60;;
56122;SDS011;42426;46.104;19.656;2023-03-07T13:20:01;17.83;;;10.50;;
56122;SDS011;42426;46.104;19.656;2023-03-07T13:27:47;17.35;;;10.10;;
56122;SDS011;42426;46.104;19.656;2023-03-07T13:30:20;14.32;;;9.68;;
56122;SDS011;42426;46.104;19.656;2023-03-07T13:37:53;16.00;;;9.70;;
56122;SDS011;42426;46.104;19.656;2023-03-07T13:48:12;15.52;;;10.38;;
56122;SDS011;42426;46.104;19.656;2023-03-07T14:07:28;19.17;;;10.95;;
56122;SDS011;42426;46.104;19.656;2023-03-07T14:12:48;18.42;;;10.93;;
56122;SDS011;42426;46.104;19.656;2023-03-07T14:15:43;21.73;;;14.13;;
56122;SDS011;42426;46.104;19.656;2023-03-07T14:26:09;14.88;;;10.38;;
56122;SDS011;42426;46.104;19.656;2023-03-07T14:28:37;17.73;;;11.43;;
56122;SDS011;42426;46.104;19.656;2023-03-07T14:31:18;17.30;;;11.23;;
56122;SDS011;42426;46.104;19.656;2023-03-07T14:34:00;14.32;;;11.00;;
56122;SDS011;42426;46.104;19.656;2023-03-07T14:36:40;16.05;;;10.68;;
56122;SDS011;42426;46.104;19.656;2023-03-07T14:39:09;17.85;;;11.77;;
56122;SDS011;42426;46.104;19.656;2023-03-07T14:47:11;15.85;;;11.70;;
56122;SDS011;42426;46.104;19.656;2023-03-07T14:49:53;17.00;;;10.48;;
56122;SDS011;42426;46.104;19.656;2023-03-07T14:52:31;14.18;;;10.55;;
56122;SDS011;42426;46.104;19.656;2023-03-07T14:54:59;19.30;;;12.55;;
56122;SDS011;42426;46.104;19.656;2023-03-07T14:57:32;16.10;;;11.43;;
56122;SDS011;42426;46.104;19.656;2023-03-07T15:00:12;16.50;;;10.73;;
56122;SDS011;42426;46.104;19.656;2023-03-07T15:02:57;16.52;;;11.90;;
56122;SDS011;42426;46.104;19.656;2023-03-07T15:05:29;16.55;;;10.60;;
56122;SDS011;42426;46.104;19.656;2023-03-07T15:10:43;13.57;;;10.25;;
56122;SDS011;42426;46.104;19.656;2023-03-07T15:15:54;15.85;;;10.82;;
56122;SDS011;42426;46.104;19.656;2023-03-07T15:18:43;15.05;;;10.70;;
56122;SDS011;42426;46.104;19.656;2023-03-07T15:21:19;17.52;;;11.70;;
56122;SDS011;42426;46.104;19.656;2023-03-07T15:23:51;14.27;;;10.65;;
56122;SDS011;42426;46.104;19.656;2023-03-07T15:26:19;18.67;;;13.32;;
56122;SDS011;42426;46.104;19.656;2023-03-07T15:28:48;16.65;;;11.88;;
56122;SDS011;42426;46.104;19.656;2023-03-07T15:31:14;18.35;;;13.48;;
56122;SDS011;42426;46.104;19.656;2023-03-07T15:33:40;22.10;;;13.73;;
56122;SDS011;42426;46.104;19.656;2023-03-07T15:36:08;18.45;;;12.88;;
56122;SDS011;42426;46.104;19.656;2023-03-07T15:38:43;21.75;;;13.18;;
56122;SDS011;42426;46.104;19.656;2023-03-07T15:41:27;20.23;;;12.90;;
56122;SDS011;42426;46.104;19.656;2023-03-07T15:46:45;19.08;;;13.45;;
56122;SDS011;42426;46.104;19.656;2023-03-07T15:49:34;17.75;;;12.10;;
56122;SDS011;42426;46.104;19.656;2023-03-07T15:52:16;20.20;;;12.50;;
56122;SDS011;42426;46.104;19.656;2023-03-07T15:54:59;17.45;;;11.85;;
56122;SDS011;42426;46.104;19.656;2023-03-07T16:02:42;27.95;;;14.57;;
56122;SDS011;42426;46.104;19.656;2023-03-07T16:07:46;21.92;;;14.88;;
56122;SDS011;42426;46.104;19.656;2023-03-07T16:10:13;25.02;;;13.43;;
56122;SDS011;42426;46.104;19.656;2023-03-07T16:12:39;19.75;;;13.95;;
56122;SDS011;42426;46.104;19.656;2023-03-07T16:18:32;28.15;;;16.60;;
56122;SDS011;42426;46.104;19.656;2023-03-07T16:24:23;25.48;;;17.05;;
56122;SDS011;42426;46.104;19.656;2023-03-07T16:30:13;26.42;;;17.17;;
56122;SDS011;42426;46.104;19.656;2023-03-07T16:36:03;25.25;;;16.05;;
56122;SDS011;42426;46.104;19.656;2023-03-07T16:41:51;24.52;;;16.33;;
56122;SDS011;42426;46.104;19.656;2023-03-07T16:51:00;26.92;;;18.55;;
56122;SDS011;42426;46.104;19.656;2023-03-07T16:56:50;25.83;;;16.33;;
56122;SDS011;42426;46.104;19.656;2023-03-07T17:02:41;38.88;;;19.25;;
56122;SDS011;42426;46.104;19.656;2023-03-07T17:08:29;32.40;;;18.85;;
56122;SDS011;42426;46.104;19.656;2023-03-07T17:14:16;29.98;;;19.67;;
56122;SDS011;42426;46.104;19.656;2023-03-07T17:20:05;42.88;;;27.10;;
56122;SDS011;42426;46.104;19.656;2023-03-07T17:25:54;40.80;;;21.45;;
56122;SDS011;42426;46.104;19.656;2023-03-07T17:31:41;26.27;;;17.92;;
56122;SDS011;42426;46.104;19.656;2023-03-07T17:37:29;26.05;;;17.25;;
56122;SDS011;42426;46.104;19.656;2023-03-07T17:46:52;33.03;;;21.10;;
56122;SDS011;42426;46.104;19.656;2023-03-07T17:52:40;32.80;;;20.88;;
56122;SDS011;42426;46.104;19.656;2023-03-07T17:58:28;30.30;;;20.08;;
56122;SDS011;42426;46.104;19.656;2023-03-07T18:04:16;39.75;;;24.88;;
56122;SDS011;42426;46.104;19.656;2023-03-07T18:10:05;35.95;;;23.80;;
56122;SDS011;42426;46.104;19.656;2023-03-07T18:15:55;36.42;;;24.23;;
56122;SDS011;42426;46.104;19.656;2023-03-07T18:21:44;39.60;;;24.63;;
56122;SDS011;42426;46.104;19.656;2023-03-07T18:27:32;42.13;;;25.80;;
56122;SDS011;42426;46.104;19.656;2023-03-07T18:33:20;32.63;;;23.55;;
56122;SDS011;42426;46.104;19.656;2023-03-07T18:39:07;40.85;;;25.20;;
56122;SDS011;42426;46.104;19.656;2023-03-07T18:48:46;35.17;;;23.75;;
56122;SDS011;42426;46.104;19.656;2023-03-07T18:51:16;38.55;;;24.20;;
56122;SDS011;42426;46.104;19.656;2023-03-07T18:53:47;35.70;;;23.63;;
56122;SDS011;42426;46.104;19.656;2023-03-07T18:56:14;37.42;;;23.20;;
56122;SDS011;42426;46.104;19.656;2023-03-07T18:58:40;35.78;;;21.98;;
56122;SDS011;42426;46.104;19.656;2023-03-07T19:03:43;38.00;;;23.25;;
56122;SDS011;42426;46.104;19.656;2023-03-07T19:06:11;41.10;;;24.35;;